Terminal Aerodrome Forecast
Issued by NWS Duluth, MN

Home | Current Version | Previous Version | Text Only | Print | Product List | Glossary On
Versions: 1 2 3 4 5 6 7 8 9 10 11 12 13 14 15 16 17 18 19 20 21 22 23 24 25
000
FTUS43 KDLH 181720
TAFINL
TAF
KINL 181720Z 1818/1918 30006KT P6SM SCT100
     FM182000 30007KT P6SM VCSH FEW060 SCT120
     FM182200 29007KT P6SM VCTS SCT060CB BKN120
     FM190000 27004KT P6SM FEW060 SCT110
     FM190800 00000KT 3SM BR FEW003
     FM191300 26007KT P6SM FEW200=

USA.gov is the U.S. government's official web portal to all federal, state and local government web resources and services.